Aktualne dane pomiarowe

Uwaga, wersja testowa! Automatyczne pobieranie danych za pomocą narzędzi lub skryptów to umożliwiających jest zabronione.

Dane meteo z obszaru Polski uzyskane na podstawie depesz SYNOP pobieranych co godzinę z NWS. Najedź myszką na symbol przedstawiony w tabeli, aby uzyskać informacje co do jego znaczenia. Prosimy pamiętać, że to testowa wersja strony, która jeszcze nie jest ukończona. Stworzono również jest krótki FAQ dotyczący korzystania z tej podstrony Anomalie temperatury w chwili obecnej odniesione są do okresu referencyjnego 1951-2016. Okres ten będzie później zmieniony na 1981-2010. Kliknij ikonę aby pobrać plik CSV. Kliknij ikonę aby wygenerować mapę synoptyczną dla danego terminu.

Wybierz Datę:    

        

Łask (12454)

Dane terminowe dla wybranej stacji. Kliknij datę, aby otrzymać dane z tego terminu dla wszystkich stacji.

TemperaturaZachmurzenieWiatrCiśnienieOpadyPogoda
 Data t td wb tx tn tg rh  Nt Nl Cl Cm Ch ws wd g1 g2 wx mslp ppp ch 24h 12h t ww ww w1 w2  
2019-08-08 23:00:00 16.1 12.9 13.9--- 8150.0wx-1----1012.4 989.9 0.8---------
2019-08-08 22:00:00 16.7 12.5 13.9--- 7650.0wx-wx2wx---1012.2 989.8 0.7---------
2019-08-08 21:00:00 17.5 12.8 14.4--- 7450.0wx-wx1wx---1011.8 989.4 0.5---------
2019-08-08 20:00:00 17.2 14.1 15.1--- 8245.0wx-wx2wx---1011.5 989.1 0.4---------
2019-08-08 19:00:00 18.7 13.6 15.3--- 7250.0wxwxwxwx2wx---1011.4 989.1 0.6---wx-w1--
2019-08-08 18:00:00 20.7 12.2 15.4 25.6 17.9- 5855.0wx-2wx-9-1011.0 988.9 0.3- 0.012------
2019-08-08 17:00:00 23.6 11.5 16.3--- 4760.0wxwxwxwx3wx---1010.6 988.7 -0.1---------
2019-08-08 16:00:00 24.4 10.8 16.3--- 4260.0wx-4wx---1010.3 988.5 -0.3---------
2019-08-08 15:00:00 24.9 11.8 17.0--- 4460.0wxwxwxwx5wx---1010.5 988.7 -0.4---------
2019-08-08 14:00:00 25.4 10.9 16.8--- 4060.0wxwxwxwx5wx---1010.5 988.8 -0.1---------
2019-08-08 13:00:00 24.3 11.2 16.4--- 4460.0wxwxwxwx7wx---1010.6 988.8 0.0---------
2019-08-08 12:00:00 24.1 11.9 16.7--- 4660.0wxwxwx7wx---1010.9 989.1 0.9- 0.06------
2019-08-08 11:00:00 24.2 13.2 17.4--- 5055.0wxwxwx8wx---1010.7 988.9 1.1---------
2019-08-08 10:00:00 22.7 13.9 17.1--- 5850.0wxwxwx8wx---1010.7 988.8 1.4---------
2019-08-08 09:00:00 21.4 15.4 17.4--- 6940.0wxwxwx7wx---1010.2 988.2 1.4---------
2019-08-08 08:00:00 20.6 16.5 17.8--- 7730.0wxwxwx8wx---1009.8 987.8 1.9---------
2019-08-08 07:00:00 19.3 17.1 17.7--- 8724.0wxwxwx6wx---1009.4 987.3 2.2---------
2019-08-08 06:00:00 18.1 17.8 17.9 22.8 16.8- 9818.0wxwxwx7wx---1009.0 986.8 2.0 6.2 6.012------
2019-08-08 05:00:00 17.6 17.6 17.6--- 10015.0wxwxwx6wx---1008.1 985.9 1.6---------
2019-08-08 04:00:00 17.5 17.5 17.5--- 1008.0wxwxwx5wx---1007.3 985.1 0.9---wx---
2019-08-08 03:00:00 17.2 17.2 17.2--- 10010.0wxwxwx5wx---1007.0 984.8 0.6---wx-w1w2--
2019-08-08 02:00:00 17.0 17.0 17.0--- 10030.0wxwxwx3wx---1006.5 984.3 0.1---wx-w1w2--
2019-08-08 01:00:00 17.8 17.8 17.8--- 1007.0wxwxwx4wx---1006.4 984.2 -0.2---wx-w1w2--
2019-08-08 00:00:00 17.8 17.8 17.8--- 10010.0wxwxwx4wx---1006.4 984.2 0.0- 2.06wx-w1w2--
2019-08-07 23:00:00 18.3 18.3 18.3--- 10027.0wxwxwxwx3wx---1006.3 984.2 0.6---wx-w1w2--
2019-08-07 22:00:00 19.0 18.4 18.6--- 9627.0wxwxwxwx3wx---1006.5 984.4 1.0---wx---
2019-08-07 21:00:00 19.6 17.9 18.4--- 9060.0wxwxwxwx2wx---1006.2 984.2 1.0---------
2019-08-07 20:00:00 21.3 17.2 18.5--- 7850.0wxwxwxwx2wx---1005.5 983.6 -0.5---wx---
2019-08-07 19:00:00 21.3 16.9 18.3--- 7660.0wxwxwxwxwx3wx---1005.4 983.5 -0.8---------
2019-08-07 18:00:00 22.8 16.4 18.5 26.3 18.3- 6730.0wxwxwxwxwx2wx---1004.9 983.2 -1.3--12------
2019-08-07 17:00:00 24.8 16.0 19.0--- 5830.0wxwxwxwxwx2wx---1005.7 984.1 -1.1---------
2019-08-07 16:00:00 26.0 15.8 19.4--- 5365.0wxwxwxwx2wx---1005.8 984.3 -1.2---------
2019-08-07 15:00:00 25.4 16.2 19.4--- 5730.0wxwxwxwx2wx---1006.2 984.6 -1.4---------
2019-08-07 14:00:00 25.6 17.3 20.1--- 6030.0wxwxwxwx4wx---1006.8 985.2 -1.6---------
2019-08-07 13:00:00 25.2 17.0 19.8--- 6045.0wxwxwxwx3wx---1007.1 985.5 -1.5---------
2019-08-07 12:00:00 23.6 18.1 19.8--- 7145.0wxwxwxwxwx2wx---1007.7 986.0 -1.0--6------
2019-08-07 11:00:00 21.9 18.0 19.2--- 7920.0wxwxwxwx2wx---1008.6 986.7 -0.1---------
2019-08-07 10:00:00 21.5 18.6 19.4--- 8420.0wxwxwxwxwx2wx---1008.9 987.0 0.4---------
2019-08-07 09:00:00 20.8 18.2 18.9--- 8530.0wx-wxwx2wx---1009.0 987.0 0.6---------
2019-08-07 08:00:00 20.6 18.6 19.2--- 8830.0wx-wxwx2wx---1008.8 986.8 0.4---------
2019-08-07 07:00:00 18.7 18.3 18.4--- 9810.0wx-wxwx2wx---1008.7 986.6 0.2---------
2019-08-07 06:00:00 18.4 18.4 18.4--- 10029.0wx-wxwx2wx---1008.6 986.4 0.3---------
2019-08-07 05:00:00 17.2 17.1 17.1--- 9920.0wx-wxwx1wx---1008.7 986.4 0.1---------
2019-08-07 04:00:00 16.3 16.3 16.3--- 10020.0wx-wxwx1----1008.8 986.4 0.1---------
2019-08-07 03:00:00 16.1 16.1 16.1--- 10030.0wx-wxwx1wx---1008.5 986.1 -0.4---------
2019-08-07 02:00:00 16.6 16.6 16.6--- 10030.0wx-wx1wx---1008.6 986.3 -0.5---------
2019-08-07 01:00:00 17.0 17.0 17.0--- 10025.0wx-wx1wx---1008.6 986.3 -0.8---------
2019-08-07 00:00:00 16.7 16.7 16.7--- 10030.0wxwxwxwx1wx---1008.8 986.5 0.1---wx-w1w2--
1.4 ms

 

Print Friendly, PDF & Email